Time;durP1;ratioP1;P1;durP2;ratioP2;P2;SDS_P1;SDS_P2;PMS_P1;PMS_P2;Temp;Humidity;BMP_temperature;BMP_pressure;BME280_temperature;BME280_humidity;BME280_pressure;Samples;Min_cycle;Max_cycle;Signal;HPM_P1;HPM_P2
2022/06/30 00:00:58;;;;;;;;;;;;;;;34.09;26.39;98707.25;4406095;32;34527;-93
2022/06/30 00:03:26;;;;;;;;;;;;;;;34.18;26.14;98701.06;4421136;32;33481;-90
2022/06/30 00:05:53;;;;;;;;;;;;;;;33.93;26.48;98701.56;4421379;32;34217;-93
2022/06/30 00:08:20;;;;;;;;;;;;;;;33.90;26.24;98698.16;4407146;32;33330;-89
2022/06/30 00:10:48;;;;;;;;;;;;;;;34.04;26.03;98702.31;4420879;32;34408;-92
2022/06/30 00:13:15;;;;;;;;;;;;;;;33.93;26.32;98713.16;4420494;32;33619;-91
2022/06/30 00:15:42;;;;;;;;;;;;;;;33.78;26.36;98714.56;4421027;32;34101;-92
2022/06/30 00:18:10;;;;;;;;;;;;;;;33.76;26.29;98706.66;4420924;32;33835;-90
2022/06/30 00:20:37;;;;;;;;;;;;;;;33.66;26.54;98703.09;4420684;32;35113;-92
2022/06/30 00:23:04;;;;;;;;;;;;;;;33.64;26.57;98713.97;4421151;32;33848;-88
2022/06/30 00:25:31;;;;;;;;;;;;;;;33.57;26.62;98704.78;4407180;32;34931;-94
2022/06/30 00:27:59;;;;;;;;;;;;;;;33.27;27.10;98713.69;4420435;32;35133;-92
2022/06/30 00:30:26;;;;;;;;;;;;;;;33.32;27.10;98706.06;4406866;32;35042;-92
2022/06/30 00:32:53;;;;;;;;;;;;;;;33.54;26.76;98714.94;4420470;32;32850;-92
2022/06/30 00:35:21;;;;;;;;;;;;;;;33.37;27.28;98714.53;4406793;32;33750;-89
2022/06/30 00:37:48;;;;;;;;;;;;;;;33.27;27.32;98716.38;4420907;32;33890;-93
2022/06/30 00:40:15;;;;;;;;;;;;;;;33.02;27.59;98716.81;4394289;32;33568;-95
2022/06/30 00:42:42;;;;;;;;;;;;;;;33.12;27.45;98712.34;4420652;32;33460;-91
2022/06/30 00:45:10;;;;;;;;;;;;;;;33.08;27.52;98705.53;4420764;32;35075;-91
2022/06/30 00:47:37;;;;;;;;;;;;;;;33.15;27.48;98706.72;4419921;32;34496;-93
2022/06/30 00:50:05;;;;;;;;;;;;;;;32.69;28.14;98718.69;4420340;32;35275;-94
2022/06/30 00:52:34;;;;;;;;;;;;;;;32.90;27.62;98708.81;4420647;32;34562;-92
2022/06/30 00:55:02;;;;;;;;;;;;;;;32.82;28.04;98716.69;4420340;32;33999;-92
2022/06/30 00:57:30;;;;;;;;;;;;;;;32.99;27.73;98706.31;4420193;32;34444;-90
2022/06/30 00:59:57;;;;;;;;;;;;;;;33.04;27.49;98706.81;4406592;32;35237;-92
2022/06/30 01:02:25;;;;;;;;;;;;;;;33.20;27.18;98706.31;4406505;32;33412;-92
2022/06/30 01:04:52;;;;;;;;;;;;;;;32.98;27.24;98710.00;4406909;32;33826;-93
2022/06/30 01:07:20;;;;;;;;;;;;;;;33.09;26.90;98701.88;4406473;32;35285;-91
2022/06/30 01:12:42;;;;;;;;;;;;;;;32.73;27.29;98711.22;4422216;32;33309;-94
2022/06/30 01:15:14;;;;;;;;;;;;;;;32.93;27.10;98699.66;4422463;32;35092;-92
2022/06/30 01:17:41;;;;;;;;;;;;;;;32.68;27.48;98703.59;4408187;32;35172;-93
2022/06/30 01:20:09;;;;;;;;;;;;;;;32.86;27.09;98696.63;4408600;32;35293;-90
2022/06/30 01:22:37;;;;;;;;;;;;;;;32.81;27.03;98704.25;4422411;32;33469;-93
2022/06/30 01:25:05;;;;;;;;;;;;;;;32.69;27.21;98702.59;4408722;32;33507;-93
2022/06/30 01:27:32;;;;;;;;;;;;;;;32.36;27.79;98703.63;4421958;32;34531;-93
2022/06/30 01:30:01;;;;;;;;;;;;;;;32.78;27.08;98701.81;4422426;32;34450;-90
2022/06/30 01:32:29;;;;;;;;;;;;;;;32.48;27.55;98707.13;4422064;32;33176;-91
2022/06/30 01:34:57;;;;;;;;;;;;;;;32.65;27.27;98709.22;4408462;32;33961;-91
2022/06/30 01:37:24;;;;;;;;;;;;;;;32.43;27.65;98703.00;4422185;32;34046;-92
2022/06/30 01:39:52;;;;;;;;;;;;;;;32.38;27.65;98707.84;4421688;32;35049;-93
2022/06/30 01:42:20;;;;;;;;;;;;;;;32.64;27.28;98707.50;4422155;32;33664;-91
2022/06/30 01:44:47;;;;;;;;;;;;;;;32.38;27.46;98709.69;4422004;32;34256;-87
2022/06/30 01:47:15;;;;;;;;;;;;;;;32.51;27.27;98715.78;4421911;32;33916;-89
2022/06/30 01:49:42;;;;;;;;;;;;;;;32.43;26.91;98716.41;4408380;32;34423;-90
2022/06/30 01:52:09;;;;;;;;;;;;;;;32.34;26.93;98719.81;4421997;32;33554;-92
2022/06/30 01:54:37;;;;;;;;;;;;;;;32.28;27.20;98711.44;4421811;32;33990;-92
2022/06/30 01:57:04;;;;;;;;;;;;;;;32.35;26.96;98718.00;4421947;32;34434;-94
2022/06/30 01:59:31;;;;;;;;;;;;;;;32.27;27.04;98728.53;4421789;32;34483;-93
2022/06/30 02:01:59;;;;;;;;;;;;;;;32.21;27.00;98722.69;4421502;32;34214;-93
2022/06/30 02:07:13;;;;;;;;;;;;;;;32.31;27.25;98722.75;4422025;32;33875;-88
2022/06/30 02:09:40;;;;;;;;;;;;;;;32.34;27.13;98727.87;4422090;32;34364;-91
2022/06/30 02:14:54;;;;;;;;;;;;;;;32.38;26.94;98723.94;4409903;32;34224;-87
2022/06/30 02:17:21;;;;;;;;;;;;;;;32.38;26.75;98726.63;4421877;32;34165;-91
2022/06/30 02:19:49;;;;;;;;;;;;;;;32.30;26.81;98720.22;4422009;32;34350;-92
2022/06/30 02:22:16;;;;;;;;;;;;;;;32.04;26.90;98722.41;4407426;32;33673;-92
2022/06/30 02:24:43;;;;;;;;;;;;;;;32.02;26.96;98719.84;4421360;32;35002;-92
2022/06/30 02:27:10;;;;;;;;;;;;;;;32.17;26.55;98721.25;4421425;32;34551;-93
2022/06/30 02:29:38;;;;;;;;;;;;;;;31.76;27.32;98716.59;4407580;32;35057;-92
2022/06/30 02:32:05;;;;;;;;;;;;;;;31.69;27.12;98720.75;4421225;32;33699;-93
2022/06/30 02:34:32;;;;;;;;;;;;;;;32.00;26.69;98729.00;4421872;32;34124;-93
2022/06/30 02:37:00;;;;;;;;;;;;;;;32.06;26.87;98725.81;4421927;32;35357;-89
2022/06/30 02:39:27;;;;;;;;;;;;;;;32.00;26.78;98729.00;4407765;32;33282;-93
2022/06/30 02:41:55;;;;;;;;;;;;;;;32.05;26.58;98726.78;4421743;32;33518;-90
2022/06/30 02:44:23;;;;;;;;;;;;;;;31.98;26.58;98724.62;4421780;32;33832;-93
2022/06/30 02:46:51;;;;;;;;;;;;;;;32.10;26.44;98719.22;4421387;32;34128;-91
2022/06/30 02:49:19;;;;;;;;;;;;;;;32.19;26.47;98721.97;4407927;32;34316;-84
2022/06/30 02:51:46;;;;;;;;;;;;;;;32.06;26.55;98720.44;4407760;32;32634;-86
2022/06/30 02:54:14;;;;;;;;;;;;;;;31.98;26.59;98721.94;4407671;32;34290;-93
2022/06/30 02:56:41;;;;;;;;;;;;;;;32.01;26.62;98722.63;4421576;32;34103;-94
2022/06/30 02:59:08;;;;;;;;;;;;;;;31.86;26.92;98712.22;4407895;32;34153;-93
2022/06/30 03:01:36;;;;;;;;;;;;;;;32.01;26.70;98714.59;4407836;32;33690;-89
2022/06/30 03:04:03;;;;;;;;;;;;;;;31.86;26.84;98717.59;4407646;32;33071;-92
2022/06/30 03:06:31;;;;;;;;;;;;;;;31.73;27.10;98716.84;4421699;32;34967;-92
2022/06/30 03:08:59;;;;;;;;;;;;;;;31.93;26.72;98721.44;4421675;32;35290;-89
2022/06/30 03:11:26;;;;;;;;;;;;;;;31.92;26.78;98732.31;4407195;32;33642;-91
2022/06/30 03:14:13;;;;;;;;;;;;;;;31.99;26.64;98722.78;4421544;32;34823;-93
2022/06/30 03:16:40;;;;;;;;;;;;;;;31.69;27.04;98726.09;4421663;32;34622;-91
2022/06/30 03:19:07;;;;;;;;;;;;;;;32.02;26.48;98741.31;4421794;32;34091;-91
2022/06/30 03:21:35;;;;;;;;;;;;;;;32.02;26.74;98735.09;4421352;32;33054;-91
2022/06/30 03:24:02;;;;;;;;;;;;;;;31.94;26.77;98739.25;4421117;32;33529;-92
2022/06/30 03:26:29;;;;;;;;;;;;;;;32.06;26.74;98745.44;4420557;32;34036;-92
2022/06/30 03:28:57;;;;;;;;;;;;;;;32.15;26.64;98743.81;4407618;32;34023;-88
2022/06/30 03:31:24;;;;;;;;;;;;;;;31.95;27.03;98751.69;4420856;32;33580;-92
2022/06/30 03:33:51;;;;;;;;;;;;;;;32.03;27.20;98747.50;4421232;32;34187;-93
2022/06/30 03:36:18;;;;;;;;;;;;;;;32.10;27.10;98756.75;4421224;32;34459;-92
2022/06/30 03:38:45;;;;;;;;;;;;;;;31.90;27.45;98753.03;4421473;32;35209;-93
2022/06/30 03:41:13;;;;;;;;;;;;;;;31.95;27.47;98753.50;4420846;32;34204;-93
2022/06/30 03:43:40;;;;;;;;;;;;;;;31.68;28.05;98748.53;4394876;32;32925;-93
2022/06/30 03:46:07;;;;;;;;;;;;;;;31.93;27.87;98756.28;4395234;32;34171;-92
2022/06/30 03:48:35;;;;;;;;;;;;;;;32.02;27.94;98753.88;4407580;32;34660;-94
2022/06/30 03:51:03;;;;;;;;;;;;;;;31.68;28.79;98752.06;4421203;32;34314;-89
2022/06/30 03:53:30;;;;;;;;;;;;;;;32.16;28.27;98761.59;4421296;32;33781;-94
2022/06/30 03:55:57;;;;;;;;;;;;;;;32.06;28.36;98763.34;4420824;32;34452;-93
2022/06/30 03:58:25;;;;;;;;;;;;;;;32.50;28.50;98769.56;4394206;32;32765;-93
2022/06/30 04:00:52;;;;;;;;;;;;;;;32.87;28.59;98773.50;4421194;32;33246;-94
2022/06/30 04:03:19;;;;;;;;;;;;;;;33.04;28.26;98766.72;4421026;32;34061;-94
2022/06/30 04:05:46;;;;;;;;;;;;;;;33.34;27.83;98765.91;4421021;32;34469;-94
2022/06/30 04:08:13;;;;;;;;;;;;;;;33.53;27.94;98767.84;4421155;32;34610;-94
2022/06/30 04:10:42;;;;;;;;;;;;;;;33.80;27.70;98771.75;4420532;32;33085;-90
2022/06/30 04:13:10;;;;;;;;;;;;;;;34.02;27.51;98768.00;4407613;32;33750;-93
2022/06/30 04:15:37;;;;;;;;;;;;;;;34.26;27.28;98768.47;4407522;32;34113;-93
2022/06/30 04:18:05;;;;;;;;;;;;;;;34.55;27.10;98768.50;4421178;32;35202;-92
2022/06/30 04:20:34;;;;;;;;;;;;;;;34.80;26.35;98772.44;4420880;32;34301;-92
2022/06/30 04:23:01;;;;;;;;;;;;;;;34.66;26.50;98764.78;4420877;32;33636;-93
2022/06/30 04:25:34;;;;;;;;;;;;;;;34.73;26.95;98760.53;4395189;32;34386;-94
2022/06/30 04:28:01;;;;;;;;;;;;;;;35.12;26.39;98763.22;4406557;32;34245;-90
2022/06/30 04:33:14;;;;;;;;;;;;;;;35.36;26.47;98765.38;4420712;32;34912;-92
2022/06/30 04:35:42;;;;;;;;;;;;;;;35.52;26.38;98764.78;4420438;32;34139;-91
2022/06/30 04:38:09;;;;;;;;;;;;;;;35.51;26.13;98766.63;4420920;32;34464;-94
2022/06/30 04:43:22;;;;;;;;;;;;;;;35.50;25.05;98764.09;4420661;32;34109;-91
2022/06/30 04:45:49;;;;;;;;;;;;;;;35.91;24.28;98772.66;4392480;32;34769;-93
2022/06/30 04:48:16;;;;;;;;;;;;;;;36.16;24.61;98765.72;4409054;32;34628;-92
2022/06/30 04:50:44;;;;;;;;;;;;;;;36.23;24.19;98778.44;4422676;32;34682;-92
2022/06/30 04:53:11;;;;;;;;;;;;;;;35.40;24.34;98757.84;4422362;32;34977;-83
2022/06/30 04:55:39;;;;;;;;;;;;;;;36.05;24.22;98770.31;4422302;32;34474;-93
2022/06/30 04:58:06;;;;;;;;;;;;;;;35.75;23.66;98762.53;4420982;32;35079;-89
2022/06/30 05:00:33;;;;;;;;;;;;;;;35.49;24.43;98767.72;4422154;32;33811;-94
2022/06/30 05:03:01;;;;;;;;;;;;;;;36.64;23.03;98764.50;4422446;32;34911;-92
2022/06/30 05:05:28;;;;;;;;;;;;;;;36.48;23.36;98774.19;4408936;32;34339;-93
2022/06/30 05:07:55;;;;;;;;;;;;;;;35.36;24.23;98761.84;4422218;32;35079;-87
2022/06/30 05:10:23;;;;;;;;;;;;;;;34.74;24.37;98767.66;4422610;32;33679;-90
2022/06/30 05:12:50;;;;;;;;;;;;;;;36.16;23.89;98765.72;4422466;32;34632;-90
2022/06/30 05:15:18;;;;;;;;;;;;;;;35.99;24.04;98759.28;4407231;32;33882;-92
2022/06/30 05:17:45;;;;;;;;;;;;;;;37.14;23.31;98762.03;4408186;32;33052;-91
2022/06/30 05:20:12;;;;;;;;;;;;;;;37.25;22.88;98774.44;4422872;32;32897;-91
2022/06/30 05:22:40;;;;;;;;;;;;;;;37.29;21.60;98765.00;4408126;32;33805;-88
2022/06/30 05:27:53;;;;;;;;;;;;;;;36.84;21.75;98771.41;4422349;32;34268;-84
2022/06/30 05:30:20;;;;;;;;;;;;;;;37.45;21.28;98762.38;4420857;32;33139;-88
2022/06/30 05:32:48;;;;;;;;;;;;;;;36.89;20.20;98769.06;4417193;32;32404;-88
2022/06/30 05:35:15;;;;;;;;;;;;;;;35.62;21.57;98770.12;4406356;32;32919;-88
2022/06/30 05:37:45;;;;;;;;;;;;;;;36.08;22.11;98763.78;4408833;32;35273;-92
2022/06/30 05:40:13;;;;;;;;;;;;;;;36.35;21.08;98764.72;4421887;32;33329;-90
2022/06/30 05:42:40;;;;;;;;;;;;;;;36.24;21.20;98771.19;4421676;32;34334;-91
2022/06/30 05:45:08;;;;;;;;;;;;;;;35.69;20.42;98769.38;4422059;32;35179;-88
2022/06/30 05:47:43;;;;;;;;;;;;;;;34.97;21.55;98778.09;4422297;32;34407;-88
2022/06/30 05:50:10;;;;;;;;;;;;;;;34.77;22.13;98780.78;4408072;32;33285;-89
2022/06/30 05:52:38;;;;;;;;;;;;;;;35.56;21.13;98772.41;4415823;32;35100;-90
2022/06/30 05:55:06;;;;;;;;;;;;;;;36.33;21.45;98777.50;4392980;32;32456;-85
2022/06/30 05:57:33;;;;;;;;;;;;;;;36.80;20.58;98770.03;4406854;32;34007;-87
2022/06/30 06:00:00;;;;;;;;;;;;;;;36.47;20.46;98775.16;4407011;32;34104;-88
2022/06/30 06:02:37;;;;;;;;;;;;;;;35.69;20.75;98766.69;4409653;32;34984;-83
2022/06/30 06:05:05;;;;;;;;;;;;;;;37.29;20.62;98769.56;4415297;32;35158;-91
2022/06/30 06:07:32;;;;;;;;;;;;;;;37.13;19.91;98770.31;4406861;32;34694;-86
2022/06/30 06:09:59;;;;;;;;;;;;;;;35.77;20.47;98777.56;4408328;32;34336;-88
2022/06/30 06:12:35;;;;;;;;;;;;;;;35.42;21.60;98774.72;4420901;32;34060;-88
2022/06/30 06:15:03;;;;;;;;;;;;;;;35.42;22.12;98775.59;4421701;32;34294;-93
2022/06/30 06:17:31;;;;;;;;;;;;;;;36.06;21.22;98774.72;4409059;32;34520;-95
2022/06/30 06:19:59;;;;;;;;;;;;;;;35.28;21.73;98776.06;4427452;32;34027;-89
2022/06/30 06:22:26;;;;;;;;;;;;;;;35.55;21.10;98762.62;4415119;32;35034;-87
2022/06/30 06:24:53;;;;;;;;;;;;;;;36.05;21.21;98764.94;4430163;32;35151;-95
2022/06/30 06:27:21;;;;;;;;;;;;;;;35.50;21.70;98764.94;4425993;32;34451;-91
2022/06/30 06:29:48;;;;;;;;;;;;;;;35.96;21.08;98770.38;4425970;32;34205;-93
2022/06/30 06:32:15;;;;;;;;;;;;;;;35.50;21.72;98774.87;4427916;32;34115;-89
2022/06/30 06:34:43;;;;;;;;;;;;;;;35.65;20.03;98767.13;4425383;32;34231;-94
2022/06/30 06:37:10;;;;;;;;;;;;;;;34.74;22.57;98780.22;4424469;32;34485;-91
2022/06/30 06:39:37;;;;;;;;;;;;;;;35.49;22.91;98774.00;4423743;32;33253;-94
2022/06/30 06:42:05;;;;;;;;;;;;;;;35.73;21.44;98764.53;4423672;32;35113;-90
2022/06/30 06:44:33;;;;;;;;;;;;;;;34.24;22.80;98773.13;4409240;32;34434;-88
2022/06/30 06:47:00;;;;;;;;;;;;;;;33.89;23.34;98770.91;4409444;32;33680;-93
2022/06/30 06:49:27;;;;;;;;;;;;;;;34.80;22.37;98768.91;4413439;32;33744;-95
2022/06/30 06:51:54;;;;;;;;;;;;;;;35.13;22.45;98772.97;4425250;32;33994;-96
2022/06/30 06:54:22;;;;;;;;;;;;;;;36.80;21.72;98770.03;4398687;32;34510;-96
2022/06/30 06:56:50;;;;;;;;;;;;;;;36.19;21.34;98763.56;4411038;32;34454;-95
2022/06/30 06:59:17;;;;;;;;;;;;;;;35.32;21.44;98762.12;4424558;32;33518;-96
2022/06/30 07:01:44;;;;;;;;;;;;;;;35.01;21.81;98761.53;4424101;32;35318;-93
2022/06/30 07:04:12;;;;;;;;;;;;;;;34.16;23.24;98764.06;4412749;32;35221;-95
2022/06/30 07:06:39;;;;;;;;;;;;;;;34.75;23.52;98766.63;4399676;32;34465;-96
2022/06/30 07:09:06;;;;;;;;;;;;;;;34.90;22.85;98767.03;4414001;32;33750;-94
2022/06/30 07:11:34;;;;;;;;;;;;;;;35.85;22.47;98762.50;4430961;32;34871;-96
2022/06/30 07:14:01;;;;;;;;;;;;;;;35.63;21.87;98764.59;4411620;32;34446;-96
2022/06/30 07:16:28;;;;;;;;;;;;;;;35.50;22.26;98761.41;4425195;32;34717;-95
2022/06/30 07:18:56;;;;;;;;;;;;;;;34.58;23.08;98767.34;4428086;32;33661;-96
2022/06/30 07:21:23;;;;;;;;;;;;;;;35.88;22.73;98759.47;4428850;32;34261;-95
2022/06/30 07:23:50;;;;;;;;;;;;;;;36.37;21.43;98762.69;4424217;32;35237;-96
2022/06/30 07:26:17;;;;;;;;;;;;;;;35.40;22.65;98752.47;4426749;32;34358;-88
2022/06/30 07:28:45;;;;;;;;;;;;;;;35.50;22.29;98764.09;4413762;32;33471;-94
2022/06/30 07:31:20;;;;;;;;;;;;;;;36.46;22.55;98761.78;4428757;32;35116;-95
2022/06/30 07:33:49;;;;;;;;;;;;;;;36.23;21.44;98756.84;4414117;32;34475;-96
2022/06/30 07:36:16;;;;;;;;;;;;;;;35.48;22.16;98753.41;4412391;32;34230;-95
2022/06/30 07:38:45;;;;;;;;;;;;;;;35.20;23.00;98755.22;4412207;32;33580;-87
2022/06/30 07:41:12;;;;;;;;;;;;;;;35.27;22.21;98759.03;4412690;32;34884;-96
2022/06/30 07:43:39;;;;;;;;;;;;;;;35.07;22.62;98749.31;4425377;32;34402;-96
2022/06/30 07:46:07;;;;;;;;;;;;;;;35.30;23.03;98750.63;4428577;32;35240;-95
2022/06/30 07:48:35;;;;;;;;;;;;;;;35.53;22.15;98750.28;4411343;32;33356;-95
2022/06/30 07:51:02;;;;;;;;;;;;;;;34.30;23.24;98752.88;4424642;32;34936;-96
2022/06/30 07:53:30;;;;;;;;;;;;;;;33.96;24.23;98750.56;4424140;32;33978;-93
2022/06/30 07:55:57;;;;;;;;;;;;;;;34.84;22.87;98746.91;4424629;32;33795;-92
2022/06/30 07:58:24;;;;;;;;;;;;;;;34.83;23.31;98756.00;4426318;32;34259;-87
2022/06/30 08:00:51;;;;;;;;;;;;;;;35.23;21.86;98752.25;4412026;32;34700;-88
2022/06/30 08:03:21;;;;;;;;;;;;;;;34.77;22.04;98750.31;4413381;32;33939;-93
2022/06/30 08:05:48;;;;;;;;;;;;;;;35.86;21.38;98732.66;4412748;32;34521;-96
2022/06/30 08:08:16;;;;;;;;;;;;;;;35.50;22.06;98742.53;4413078;32;34498;-96
2022/06/30 08:10:43;;;;;;;;;;;;;;;36.03;21.79;98734.56;4410748;32;34710;-96
2022/06/30 08:13:10;;;;;;;;;;;;;;;35.34;21.90;98751.19;4410193;32;34328;-91
2022/06/30 08:15:38;;;;;;;;;;;;;;;35.73;21.15;98738.41;4409557;32;34438;-93
2022/06/30 08:18:06;;;;;;;;;;;;;;;34.76;22.39;98754.03;4410333;32;33926;-89
2022/06/30 08:20:33;;;;;;;;;;;;;;;35.14;22.87;98738.78;4422806;32;34218;-95
2022/06/30 08:23:01;;;;;;;;;;;;;;;35.15;23.44;98738.63;4423871;32;34119;-96
2022/06/30 08:25:28;;;;;;;;;;;;;;;35.33;22.48;98734.19;4397270;32;33257;-95
2022/06/30 08:27:55;;;;;;;;;;;;;;;35.66;21.81;98737.31;4427744;32;34421;-96
2022/06/30 08:30:23;;;;;;;;;;;;;;;36.70;21.36;98732.31;4425812;32;34435;-96
2022/06/30 08:32:51;;;;;;;;;;;;;;;36.40;21.48;98735.41;4410274;32;35476;-95
2022/06/30 08:35:18;;;;;;;;;;;;;;;35.71;21.81;98723.38;4425493;32;33923;-95
2022/06/30 08:38:05;;;;;;;;;;;;;;;35.43;22.18;98731.44;4424028;32;33516;-93
2022/06/30 08:43:19;;;;;;;;;;;;;;;35.86;22.76;98734.50;4424416;32;34005;-96
2022/06/30 08:45:46;;;;;;;;;;;;;;;35.79;22.62;98723.47;4410482;32;34027;-96
2022/06/30 08:48:13;;;;;;;;;;;;;;;36.60;21.39;98722.63;4398879;32;32950;-90
2022/06/30 08:50:42;;;;;;;;;;;;;;;36.89;21.03;98719.59;4411097;32;34228;-87
2022/06/30 08:53:14;;;;;;;;;;;;;;;36.60;20.60;98717.22;4410562;32;35228;-87
2022/06/30 08:55:41;;;;;;;;;;;;;;;35.52;21.87;98722.47;4410234;32;34966;-96
2022/06/30 08:58:08;;;;;;;;;;;;;;;36.18;21.35;98725.91;4408665;32;34384;-96
2022/06/30 09:00:36;;;;;;;;;;;;;;;35.95;21.57;98730.88;4394980;32;34155;-94
2022/06/30 09:03:04;;;;;;;;;;;;;;;36.66;21.57;98721.97;4406726;32;34013;-95
2022/06/30 09:05:31;;;;;;;;;;;;;;;36.42;21.16;98728.00;4406009;32;34466;-93
2022/06/30 09:07:58;;;;;;;;;;;;;;;35.50;22.17;98720.97;4406342;32;34015;-93
2022/06/30 09:10:50;;;;;;;;;;;;;;;35.09;22.29;98731.16;4405354;32;33921;-93
2022/06/30 09:13:17;;;;;;;;;;;;;;;36.08;20.67;98726.00;4392869;32;35151;-88
2022/06/30 09:15:44;;;;;;;;;;;;;;;36.21;21.06;98729.16;4406245;32;34450;-91
2022/06/30 09:18:25;;;;;;;;;;;;;;;35.82;21.53;98732.09;4406721;32;33173;-92
2022/06/30 09:20:53;;;;;;;;;;;;;;;35.41;20.88;98716.41;4406589;32;35086;-93
2022/06/30 09:23:20;;;;;;;;;;;;;;;36.05;20.13;98729.84;4411576;32;34156;-91
2022/06/30 09:25:49;;;;;;;;;;;;;;;36.75;20.09;98734.56;4411892;32;35212;-91
2022/06/30 09:28:16;;;;;;;;;;;;;;;36.94;19.23;98734.38;4406981;32;33664;-88
2022/06/30 09:30:45;;;;;;;;;;;;;;;36.02;19.79;98740.09;4393233;32;33632;-95
2022/06/30 09:33:12;;;;;;;;;;;;;;;36.20;20.01;98729.31;4394253;32;35259;-96
2022/06/30 09:35:40;;;;;;;;;;;;;;;35.99;20.04;98721.50;4411572;32;34518;-96
2022/06/30 09:38:09;;;;;;;;;;;;;;;36.59;19.89;98719.03;4409888;32;33487;-94
2022/06/30 09:40:37;;;;;;;;;;;;;;;36.12;19.09;98719.28;4409550;32;34792;-93
2022/06/30 09:43:05;;;;;;;;;;;;;;;36.21;20.10;98722.91;4397249;32;33937;-92
2022/06/30 09:45:37;;;;;;;;;;;;;;;36.90;18.85;98705.06;4397749;32;34534;-95
2022/06/30 09:48:05;;;;;;;;;;;;;;;37.30;17.94;98707.19;4398227;32;33335;-96
2022/06/30 09:50:33;;;;;;;;;;;;;;;37.37;18.19;98699.28;4410997;32;33804;-88
2022/06/30 09:53:14;;;;;;;;;;;;;;;37.50;17.74;98705.94;4396192;32;33948;-94
2022/06/30 09:55:41;;;;;;;;;;;;;;;37.07;18.49;98698.81;4409570;32;34372;-85
2022/06/30 09:58:09;;;;;;;;;;;;;;;37.95;17.61;98693.09;4411140;32;33711;-91
2022/06/30 10:00:46;;;;;;;;;;;;;;;37.38;17.82;98703.69;4409359;32;34517;-93
2022/06/30 10:03:16;;;;;;;;;;;;;;;36.77;18.36;98700.09;4409554;32;34412;-95
2022/06/30 10:05:44;;;;;;;;;;;;;;;37.13;17.77;98681.97;4408609;32;34104;-93
2022/06/30 10:08:13;;;;;;;;;;;;;;;36.23;18.91;98700.16;4408814;32;33665;-87
2022/06/30 10:10:41;;;;;;;;;;;;;;;36.65;18.81;98699.53;4407627;32;34171;-95
2022/06/30 10:13:13;;;;;;;;;;;;;;;36.64;19.46;98695.13;4409659;32;34718;-96
2022/06/30 10:15:41;;;;;;;;;;;;;;;37.47;18.40;98691.94;4412183;32;34030;-93
2022/06/30 10:18:08;;;;;;;;;;;;;;;37.38;17.97;98690.16;4408774;32;33780;-95
2022/06/30 10:20:38;;;;;;;;;;;;;;;36.80;18.10;98688.16;4396604;32;32920;-96
2022/06/30 10:23:09;;;;;;;;;;;;;;;37.21;18.05;98692.81;4410498;32;34303;-96
2022/06/30 10:25:36;;;;;;;;;;;;;;;37.97;18.02;98674.84;4409279;32;35198;-83
2022/06/30 10:28:04;;;;;;;;;;;;;;;36.80;17.79;98680.91;4410360;32;33301;-84
2022/06/30 10:30:46;;;;;;;;;;;;;;;37.56;17.70;98676.56;4413790;32;34450;-89
2022/06/30 10:33:23;;;;;;;;;;;;;;;38.21;17.35;98674.84;4408354;32;34466;-93
2022/06/30 10:35:51;;;;;;;;;;;;;;;37.99;16.05;98680.91;4407981;32;34609;-91
2022/06/30 10:38:24;;;;;;;;;;;;;;;37.76;16.04;98674.41;4411149;32;33853;-84
2022/06/30 10:40:52;;;;;;;;;;;;;;;38.02;16.45;98675.19;4410118;32;34882;-94
2022/06/30 10:43:19;;;;;;;;;;;;;;;37.90;15.76;98676.53;4408154;32;35126;-93
2022/06/30 10:45:54;;;;;;;;;;;;;;;37.30;16.39;98672.06;4411077;32;34481;-92
2022/06/30 10:48:51;;;;;;;;;;;;;;;37.16;16.62;98667.25;4409715;32;33389;-89
2022/06/30 10:51:18;;;;;;;;;;;;;;;37.44;16.88;98673.34;4410257;32;34341;-93
2022/06/30 10:53:45;;;;;;;;;;;;;;;37.39;17.02;98684.63;4409927;32;35366;-95
2022/06/30 10:56:17;;;;;;;;;;;;;;;37.24;16.98;98678.97;4421258;32;35272;-96
2022/06/30 10:59:04;;;;;;;;;;;;;;;37.55;16.81;98667.63;4411579;32;34273;-83
2022/06/30 11:01:31;;;;;;;;;;;;;;;37.78;16.10;98672.41;4411817;32;34333;-84
2022/06/30 11:03:59;;;;;;;;;;;;;;;38.07;16.35;98670.09;4425735;32;35053;-94
2022/06/30 11:06:45;;;;;;;;;;;;;;;38.20;16.34;98667.75;4412713;32;35092;-91
2022/06/30 11:09:13;;;;;;;;;;;;;;;38.80;15.83;98654.91;4425162;32;33453;-93
2022/06/30 11:11:40;;;;;;;;;;;;;;;38.02;14.80;98648.12;4427089;32;34713;-96
2022/06/30 11:14:07;;;;;;;;;;;;;;;39.01;14.86;98643.47;4424752;32;34830;-95
2022/06/30 11:16:36;;;;;;;;;;;;;;;38.49;14.71;98643.87;4425804;32;34631;-95
2022/06/30 11:19:06;;;;;;;;;;;;;;;38.56;14.88;98656.56;4422970;32;34247;-90
2022/06/30 11:21:35;;;;;;;;;;;;;;;38.00;15.65;98655.56;4411887;32;34076;-93
2022/06/30 11:24:04;;;;;;;;;;;;;;;38.40;15.86;98649.31;4400391;32;787781;-91
2022/06/30 11:29:18;;;;;;;;;;;;;;;38.75;16.36;98641.81;4415330;32;33495;-88
2022/06/30 11:31:46;;;;;;;;;;;;;;;38.78;16.34;98646.03;4427281;32;35183;-87
2022/06/30 11:34:19;;;;;;;;;;;;;;;39.21;16.05;98641.16;4423144;32;34357;-92
2022/06/30 11:36:47;;;;;;;;;;;;;;;39.11;15.86;98630.56;4398071;32;33638;-92
2022/06/30 11:39:15;;;;;;;;;;;;;;;38.80;15.64;98623.22;4413366;32;33694;-94
2022/06/30 11:41:55;;;;;;;;;;;;;;;39.18;15.45;98605.28;4424364;32;34350;-92
2022/06/30 11:44:41;;;;;;;;;;;;;;;38.60;15.68;98619.16;4413321;32;35070;-91
2022/06/30 11:47:15;;;;;;;;;;;;;;;38.80;15.15;98625.09;4426251;32;34425;-89
2022/06/30 11:49:42;;;;;;;;;;;;;;;39.11;14.54;98617.84;4411997;32;33930;-94
2022/06/30 11:52:10;;;;;;;;;;;;;;;39.07;13.76;98619.22;4424832;32;34685;-89
2022/06/30 11:54:37;;;;;;;;;;;;;;;39.25;14.14;98621.72;4424538;32;35402;-90
2022/06/30 11:57:05;;;;;;;;;;;;;;;39.44;14.01;98612.31;4409781;32;34892;-87
2022/06/30 11:59:34;;;;;;;;;;;;;;;39.39;14.00;98607.38;4411872;32;34466;-92
2022/06/30 12:02:03;;;;;;;;;;;;;;;39.91;13.56;98605.87;4397621;32;35239;-96
2022/06/30 12:04:30;;;;;;;;;;;;;;;39.37;13.11;98605.91;4411769;32;34262;-90
2022/06/30 12:07:03;;;;;;;;;;;;;;;39.57;13.05;98606.28;4409835;32;34730;-88
2022/06/30 12:09:31;;;;;;;;;;;;;;;39.47;14.02;98606.50;4409739;32;33284;-91
2022/06/30 12:11:59;;;;;;;;;;;;;;;39.73;13.49;98605.34;4412702;32;34270;-93
2022/06/30 12:14:26;;;;;;;;;;;;;;;40.46;12.41;98599.31;4414633;32;34637;-87
2022/06/30 12:16:54;;;;;;;;;;;;;;;40.63;12.73;98597.28;4415596;32;34627;-96
2022/06/30 12:19:23;;;;;;;;;;;;;;;41.09;13.27;98605.28;4412322;32;32844;-89
2022/06/30 12:21:50;;;;;;;;;;;;;;;41.00;12.67;98600.97;4413410;32;35032;-87
2022/06/30 12:24:18;;;;;;;;;;;;;;;40.57;12.61;98590.72;4411363;32;34565;-89
2022/06/30 12:26:50;;;;;;;;;;;;;;;40.35;13.33;98602.50;4395829;32;34246;-88
2022/06/30 12:29:18;;;;;;;;;;;;;;;40.12;13.40;98597.94;4386370;32;32984;-95
2022/06/30 12:32:02;;;;;;;;;;;;;;;40.52;12.66;98600.44;4410328;32;33585;-96
2022/06/30 12:34:29;;;;;;;;;;;;;;;39.82;12.67;98594.25;4408248;32;34684;-94
2022/06/30 12:37:01;;;;;;;;;;;;;;;39.45;13.27;98584.13;4408032;32;34579;-93
2022/06/30 12:39:30;;;;;;;;;;;;;;;38.66;14.37;98584.09;4397186;32;32886;-91
2022/06/30 12:42:02;;;;;;;;;;;;;;;39.48;13.81;98569.38;4394349;32;35017;-95
2022/06/30 12:44:30;;;;;;;;;;;;;;;38.96;14.51;98592.50;4394550;32;33938;-91
2022/06/30 12:47:04;;;;;;;;;;;;;;;39.08;14.39;98580.22;4410064;32;34860;-92
2022/06/30 12:49:31;;;;;;;;;;;;;;;39.61;14.09;98589.44;4409570;32;33488;-95
2022/06/30 12:52:00;;;;;;;;;;;;;;;39.84;14.12;98583.22;4410843;32;34794;-95
2022/06/30 12:54:27;;;;;;;;;;;;;;;40.04;14.58;98586.25;4400325;32;34383;-83
2022/06/30 12:57:04;;;;;;;;;;;;;;;40.64;14.74;98573.69;4423308;32;34760;-96
2022/06/30 12:59:32;;;;;;;;;;;;;;;40.18;14.34;98576.50;4408718;32;33733;-93
2022/06/30 13:02:00;;;;;;;;;;;;;;;39.52;14.27;98587.00;4410008;32;34194;-95
2022/06/30 13:04:29;;;;;;;;;;;;;;;39.39;14.42;98580.25;4423072;32;33957;-87
2022/06/30 13:06:57;;;;;;;;;;;;;;;39.77;14.06;98574.09;4423352;32;34657;-86
2022/06/30 13:09:28;;;;;;;;;;;;;;;39.66;14.42;98578.88;4413426;32;34375;-96
2022/06/30 13:11:59;;;;;;;;;;;;;;;40.20;13.77;98579.91;4413102;32;34236;-93
2022/06/30 13:14:27;;;;;;;;;;;;;;;39.55;14.45;98573.91;4413968;32;33921;-93
2022/06/30 13:16:55;;;;;;;;;;;;;;;39.83;14.54;98574.22;4415640;32;35227;-86